Time;durP1;ratioP1;P1;durP2;ratioP2;P2;SDS_P1;SDS_P2;PMS_P1;PMS_P2;Temp;Humidity;BMP_temperature;BMP_pressure;BME280_temperature;BME280_humidity;BME280_pressure;Samples;Min_cycle;Max_cycle;Signal;HPM_P1;HPM_P2
2022/05/31 00:02:23;;;;;;;;;;;;;;;10.48;51.47461;101502.6;;;;-82
2022/05/31 00:07:22;;;;;;;;;;;;;;;10.42;51.61328;101502.7;;;;-80
2022/05/31 00:12:22;;;;;;;;;;;;;;;10.35;51.62598;101502.2;;;;-81
2022/05/31 00:17:22;;;;;;;;;;;;;;;10.31;51.87793;101501.2;;;;-81
2022/05/31 00:22:23;;;;;;;;;;;;;;;10.27;51.83984;101496.3;;;;-81
2022/05/31 00:26:25;;;;;;;2.3;1.1;;;;;;;;;;;;;-82
2022/05/31 00:27:23;;;;;;;;;;;;;;;10.16;51.89453;101483.9;;;;-80
2022/05/31 00:32:24;;;;;;;;;;;;;;;10.2;51.89844;101495.4;;;;-81
2022/05/31 00:37:22;;;;;;;;;;;;;;;10.16;52.02832;101497.5;;;;-81
2022/05/31 00:42:24;;;;;;;;;;;;;;;10.12;51.94531;101491.8;;;;-80
2022/05/31 00:47:26;;;;;;;;;;;;;;;10.08;52.07422;101492.1;;;;-81
2022/05/31 00:52:26;;;;;;;;;;;;;;;10.02;51.9668;101484.3;;;;-81
2022/05/31 00:56:26;;;;;;;2.1;1.2;;;;;;;;;;;;;-82
2022/05/31 00:57:22;;;;;;;;;;;;;;;10.02;52.09961;101489.9;;;;-82
2022/05/31 01:02:22;;;;;;;;;;;;;;;9.97;52.13867;101489.5;;;;-81
2022/05/31 01:07:22;;;;;;;;;;;;;;;9.93;52.14453;101486.7;;;;-80
2022/05/31 01:12:24;;;;;;;;;;;;;;;9.91;52.28711;101486.2;;;;-83
2022/05/31 01:17:23;;;;;;;;;;;;;;;9.85;52.29199;101480.5;;;;-81
2022/05/31 01:22:22;;;;;;;;;;;;;;;9.85;52.24707;101475.5;;;;-80
2022/05/31 01:26:31;;;;;;;1.9;1.1;;;;;;;;;;;;;-82
2022/05/31 01:27:31;;;;;;;;;;;;;;;9.82;52.24316;101478.4;;;;-83
2022/05/31 01:32:29;;;;;;;;;;;;;;;9.78;52.28418;101481.7;;;;-82
2022/05/31 01:37:40;;;;;;;;;;;;;;;9.75;52.24609;101485;;;;-85
2022/05/31 01:42:23;;;;;;;;;;;;;;;9.72;52.23145;101484.5;;;;-82
2022/05/31 01:47:24;;;;;;;;;;;;;;;9.67;52.25879;101484.5;;;;-84
2022/05/31 01:52:22;;;;;;;;;;;;;;;9.65;52.51367;101482.5;;;;-81
2022/05/31 01:56:26;;;;;;;1.9;1.1;;;;;;;;;;;;;-81
2022/05/31 01:57:23;;;;;;;;;;;;;;;9.64;52.8125;101481.5;;;;-83
2022/05/31 02:02:23;;;;;;;;;;;;;;;9.61;52.81836;101476.7;;;;-79
2022/05/31 02:07:23;;;;;;;;;;;;;;;9.62;52.9873;101472.3;;;;-83
2022/05/31 02:12:32;;;;;;;;;;;;;;;9.61;53.19727;101474;;;;-81
2022/05/31 02:17:22;;;;;;;;;;;;;;;9.63;53.26758;101472.4;;;;-81
2022/05/31 02:22:32;;;;;;;;;;;;;;;9.61;53.06348;101474;;;;-83
2022/05/31 02:26:26;;;;;;;2;1.1;;;;;;;;;;;;;-81
2022/05/31 02:27:22;;;;;;;;;;;;;;;9.63;53.12305;101472.9;;;;-82
2022/05/31 02:32:21;;;;;;;;;;;;;;;9.64;53.55664;101472.7;;;;-82
2022/05/31 02:37:22;;;;;;;;;;;;;;;9.64;53.19043;101473.7;;;;-82
2022/05/31 02:42:22;;;;;;;;;;;;;;;9.63;53.31152;101466.3;;;;-82
2022/05/31 02:47:22;;;;;;;;;;;;;;;9.63;53.10059;101465.8;;;;-80
2022/05/31 02:52:23;;;;;;;;;;;;;;;9.61;53.59766;101466.1;;;;-82
2022/05/31 02:56:27;;;;;;;2.7;1.2;;;;;;;;;;;;;-80
2022/05/31 02:57:22;;;;;;;;;;;;;;;9.59;53.46191;101465.8;;;;-81
2022/05/31 03:02:23;;;;;;;;;;;;;;;9.61;53.43066;101463.1;;;;-80
2022/05/31 03:07:22;;;;;;;;;;;;;;;9.57;53.42773;101460.4;;;;-81
2022/05/31 03:12:26;;;;;;;;;;;;;;;9.57;53.61523;101459.4;;;;-81
2022/05/31 03:17:25;;;;;;;;;;;;;;;9.57;53.50586;101456.9;;;;-81
2022/05/31 03:22:25;;;;;;;;;;;;;;;9.57;53.30371;101452.7;;;;-80
2022/05/31 03:26:28;;;;;;;3.8;1.2;;;;;;;;;;;;;-80
2022/05/31 03:27:22;;;;;;;;;;;;;;;9.54;53.2666;101449.5;;;;-83
2022/05/31 03:32:23;;;;;;;;;;;;;;;9.54;53.04395;101451.6;;;;-82
2022/05/31 03:37:22;;;;;;;;;;;;;;;9.53;53.28809;101447.2;;;;-81
2022/05/31 03:42:22;;;;;;;;;;;;;;;9.52;53.26367;101446.3;;;;-81
2022/05/31 03:47:22;;;;;;;;;;;;;;;9.52;53.46387;101443.9;;;;-80
2022/05/31 03:52:21;;;;;;;;;;;;;;;9.52;54.05469;101442.1;;;;-82
2022/05/31 03:56:28;;;;;;;2.4;1.3;;;;;;;;;;;;;-82
2022/05/31 03:57:22;;;;;;;;;;;;;;;9.52;54.08887;101443.2;;;;-82
2022/05/31 04:02:22;;;;;;;;;;;;;;;9.53;54.10059;101438.2;;;;-81
2022/05/31 04:07:24;;;;;;;;;;;;;;;9.55;54.16992;101436.5;;;;-80
2022/05/31 04:12:21;;;;;;;;;;;;;;;9.58;54.35254;101438.9;;;;-81
2022/05/31 04:17:22;;;;;;;;;;;;;;;9.62;54.5459;101433.7;;;;-81
2022/05/31 04:22:22;;;;;;;;;;;;;;;9.67;54.64063;101434.7;;;;-81
2022/05/31 04:26:32;;;;;;;2.9;1.5;;;;;;;;;;;;;-80
2022/05/31 04:27:22;;;;;;;;;;;;;;;9.72;54.58105;101437.6;;;;-82
2022/05/31 04:32:22;;;;;;;;;;;;;;;9.76;54.18457;101435.7;;;;-81
2022/05/31 04:37:22;;;;;;;;;;;;;;;9.81;54.20117;101437.3;;;;-80
2022/05/31 04:42:23;;;;;;;;;;;;;;;9.89;54.55664;101435.9;;;;-83
2022/05/31 04:47:25;;;;;;;;;;;;;;;9.98;54.07813;101433.7;;;;-82
2022/05/31 04:52:22;;;;;;;;;;;;;;;10.09;54.0918;101430.1;;;;-80
2022/05/31 04:56:30;;;;;;;2.5;1.5;;;;;;;;;;;;;-82
2022/05/31 04:57:22;;;;;;;;;;;;;;;10.23;53.89844;101430.3;;;;-82
2022/05/31 05:02:23;;;;;;;;;;;;;;;10.36;53.93652;101423.9;;;;-82
2022/05/31 05:07:22;;;;;;;;;;;;;;;10.49;53.52832;101420.7;;;;-81
2022/05/31 05:12:23;;;;;;;;;;;;;;;10.66;53.14746;101423.6;;;;-81
2022/05/31 05:17:21;;;;;;;;;;;;;;;10.82;53.35645;101417.4;;;;-82
2022/05/31 05:22:22;;;;;;;;;;;;;;;11.08;53.54492;101413.8;;;;-81
2022/05/31 05:26:31;;;;;;;3.5;1.5;;;;;;;;;;;;;-81
2022/05/31 05:27:28;;;;;;;;;;;;;;;11.38;52.73242;101407.7;;;;-82
2022/05/31 05:32:22;;;;;;;;;;;;;;;11.68;52.48926;101408;;;;-80
2022/05/31 05:37:22;;;;;;;;;;;;;;;12;52.125;101405.5;;;;-82
2022/05/31 05:42:32;;;;;;;;;;;;;;;12.33;52.00684;101407.6;;;;-82
2022/05/31 05:47:22;;;;;;;;;;;;;;;12.59;51.72461;101408.8;;;;-80
2022/05/31 05:52:23;;;;;;;;;;;;;;;12.91;51.5166;101406.4;;;;-81
2022/05/31 05:56:35;;;;;;;3;1.7;;;;;;;;;;;;;-81
2022/05/31 05:57:22;;;;;;;;;;;;;;;13.32;51.2373;101407.6;;;;-79
2022/05/31 06:02:27;;;;;;;;;;;;;;;13.64;51.0957;101404;;;;-81
2022/05/31 06:07:23;;;;;;;;;;;;;;;13.97;50.88574;101398;;;;-82
2022/05/31 06:12:24;;;;;;;;;;;;;;;14.27;50.86426;101399.3;;;;-81
2022/05/31 06:17:24;;;;;;;;;;;;;;;14.5;50.55371;101401.4;;;;-81
2022/05/31 06:22:22;;;;;;;;;;;;;;;14.61;50.58887;101401.4;;;;-81
2022/05/31 06:26:33;;;;;;;4.8;2.1;;;;;;;;;;;;;-79
2022/05/31 06:27:22;;;;;;;;;;;;;;;14.69;50.49707;101404;;;;-81
2022/05/31 06:32:22;;;;;;;;;;;;;;;14.85;50.62695;101400.2;;;;-83
2022/05/31 06:37:22;;;;;;;;;;;;;;;15.29;50.56445;101389.4;;;;-81
2022/05/31 06:42:22;;;;;;;;;;;;;;;15.9;49.44922;101391.9;;;;-82
2022/05/31 06:47:21;;;;;;;;;;;;;;;16.45;48.64941;101391.6;;;;-81
2022/05/31 06:57:27;;;;;;;;;;;;;;;17.33;47.38574;101394.5;;;;-81
2022/05/31 07:02:21;;;;;;;;;;;;;;;17.82;46.65332;101384.5;;;;-80
2022/05/31 07:07:21;;;;;;;;;;;;;;;18.28;45.82617;101381.2;;;;-82
2022/05/31 07:12:27;;;;;;;;;;;;;;;18.66;45.2041;101372.5;;;;-82
2022/05/31 07:17:22;;;;;;;;;;;;;;;19.1;44.56543;101370.4;;;;-80
2022/05/31 07:22:22;;;;;;;;;;;;;;;19.59;43.81543;101371;;;;-81
2022/05/31 07:26:44;;;;;;;4.5;2.4;;;;;;;;;;;;;-81
2022/05/31 07:27:22;;;;;;;;;;;;;;;20;43.15918;101370.2;;;;-83
2022/05/31 07:32:23;;;;;;;;;;;;;;;20.19;42.58203;101370.7;;;;-81
2022/05/31 07:37:21;;;;;;;;;;;;;;;20.26;42.48633;101368.2;;;;-81
2022/05/31 07:42:22;;;;;;;;;;;;;;;20.26;42.36133;101367.8;;;;-83
2022/05/31 07:47:22;;;;;;;;;;;;;;;20.41;42.3291;101370;;;;-81
2022/05/31 07:52:22;;;;;;;;;;;;;;;20.59;41.96875;101367.9;;;;-82
2022/05/31 07:56:41;;;;;;;4;2.2;;;;;;;;;;;;;-81
2022/05/31 08:02:24;;;;;;;;;;;;;;;21.07;41.17676;101365.7;;;;-79
2022/05/31 08:07:22;;;;;;;;;;;;;;;21.25;40.55078;101364.4;;;;-82
2022/05/31 08:12:22;;;;;;;;;;;;;;;21.22;40.10059;101362.8;;;;-82
2022/05/31 08:17:22;;;;;;;;;;;;;;;21.03;40.69141;101363.3;;;;-80
2022/05/31 08:22:24;;;;;;;;;;;;;;;20.93;40.7168;101361;;;;-85
2022/05/31 08:26:41;;;;;;;4.4;2;;;;;;;;;;;;;-81
2022/05/31 08:27:21;;;;;;;;;;;;;;;20.95;40.81055;101354.8;;;;-81
2022/05/31 08:32:21;;;;;;;;;;;;;;;21.14;40.53027;101352.9;;;;-81
2022/05/31 08:37:22;;;;;;;;;;;;;;;21.47;40.21484;101355;;;;-82
2022/05/31 08:42:26;;;;;;;;;;;;;;;21.93;39.72852;101348.3;;;;-80
2022/05/31 08:47:36;;;;;;;;;;;;;;;22.48;38.67285;101346.3;;;;-81
2022/05/31 08:52:28;;;;;;;;;;;;;;;22.82;37.74609;101350.8;;;;-81
2022/05/31 08:57:01;;;;;;;4.6;2.1;;;;;;;;;;;;;-82
2022/05/31 08:57:23;;;;;;;;;;;;;;;23.02;37.3125;101347.8;;;;-81
2022/05/31 09:02:23;;;;;;;;;;;;;;;23.23;36.46582;101345.1;;;;-81
2022/05/31 09:07:26;;;;;;;;;;;;;;;23.53;36.29297;101347.9;;;;-80
2022/05/31 09:12:28;;;;;;;;;;;;;;;23.92;35.65527;101343.6;;;;-76
2022/05/31 09:17:27;;;;;;;;;;;;;;;24.33;35.24805;101340.3;;;;-76
2022/05/31 09:22:21;;;;;;;;;;;;;;;24.67;35.03125;101342.9;;;;-77
2022/05/31 09:26:58;;;;;;;4.7;1.9;;;;;;;;;;;;;-78
2022/05/31 09:27:24;;;;;;;;;;;;;;;24.98;34.66113;101334.7;;;;-78
2022/05/31 09:32:25;;;;;;;;;;;;;;;25.35;34.22559;101336.4;;;;-76
2022/05/31 09:37:29;;;;;;;;;;;;;;;25.64;33.7959;101331.5;;;;-76
2022/05/31 09:42:27;;;;;;;;;;;;;;;25.92;34.16406;101328;;;;-78
2022/05/31 09:47:22;;;;;;;;;;;;;;;26.27;32.84277;101324.9;;;;-76
2022/05/31 09:52:30;;;;;;;;;;;;;;;26.57;32.59668;101316.7;;;;-76
2022/05/31 09:57:28;;;;;;;;;;;;;;;26.9;31.31641;101314.7;;;;-79
2022/05/31 10:02:33;;;;;;;;;;;;;;;27.25;32.20313;101309.5;;;;-78
2022/05/31 10:07:32;;;;;;;;;;;;;;;27.53;30.88184;101309.4;;;;-76
2022/05/31 10:12:26;;;;;;;;;;;;;;;27.66;30.44629;101310.9;;;;-78
2022/05/31 10:17:33;;;;;;;;;;;;;;;27.41;30.34863;101307.2;;;;-77
2022/05/31 10:22:24;;;;;;;;;;;;;;;27.16;30.7041;101302.5;;;;-76
2022/05/31 10:27:05;;;;;;;4.2;2;;;;;;;;;;;;;-77
2022/05/31 10:27:24;;;;;;;;;;;;;;;26.82;31.48633;101305.5;;;;-77
2022/05/31 10:32:39;;;;;;;;;;;;;;;26.53;32.05859;101303.8;;;;-78
2022/05/31 10:37:32;;;;;;;;;;;;;;;26.26;32.83008;101301.5;;;;-77
2022/05/31 10:42:24;;;;;;;;;;;;;;;26.09;33.07324;101305.5;;;;-79
2022/05/31 10:47:24;;;;;;;;;;;;;;;25.9;33.03711;101300.6;;;;-77
2022/05/31 10:52:25;;;;;;;;;;;;;;;25.74;32.79297;101298.3;;;;-77
2022/05/31 10:57:02;;;;;;;6.4;2.1;;;;;;;;;;;;;-76
2022/05/31 10:57:29;;;;;;;;;;;;;;;25.61;33.17773;101298.6;;;;-76
2022/05/31 11:02:35;;;;;;;;;;;;;;;25.56;33.70703;101302.8;;;;-76
2022/05/31 11:07:33;;;;;;;;;;;;;;;25.53;33.69336;101296.8;;;;-76
2022/05/31 11:12:28;;;;;;;;;;;;;;;25.43;33.75684;101299.3;;;;-76
2022/05/31 11:17:31;;;;;;;;;;;;;;;25.3;33.42188;101299.8;;;;-76
2022/05/31 11:22:32;;;;;;;;;;;;;;;25.16;33.91016;101307.7;;;;-75
2022/05/31 11:27:09;;;;;;;5;2.2;;;;;;;;;;;;;-76
2022/05/31 11:27:33;;;;;;;;;;;;;;;25.01;33.91016;101306.8;;;;-76
2022/05/31 11:32:31;;;;;;;;;;;;;;;24.86;34.0498;101307.9;;;;-77
2022/05/31 11:37:40;;;;;;;;;;;;;;;24.74;34.24902;101310.3;;;;-76
2022/05/31 11:42:31;;;;;;;;;;;;;;;24.86;35.20801;101313.8;;;;-76
2022/05/31 11:47:29;;;;;;;;;;;;;;;25.18;35.96289;101308.4;;;;-77
2022/05/31 11:52:31;;;;;;;;;;;;;;;25.57;35.77539;101302.8;;;;-75
2022/05/31 11:57:15;;;;;;;5.1;2.9;;;;;;;;;;;;;-79
2022/05/31 11:57:38;;;;;;;;;;;;;;;25.8;35.65332;101301.2;;;;-78
2022/05/31 12:02:33;;;;;;;;;;;;;;;25.87;35.77539;101301.8;;;;-83
2022/05/31 12:07:24;;;;;;;;;;;;;;;25.85;35.65625;101302.3;;;;-82
2022/05/31 12:12:30;;;;;;;;;;;;;;;25.66;34.92188;101305.9;;;;-82
2022/05/31 12:17:23;;;;;;;;;;;;;;;25.37;34.96973;101312.8;;;;-82
2022/05/31 12:22:24;;;;;;;;;;;;;;;25.02;34.91895;101308.8;;;;-83
2022/05/31 12:27:10;;;;;;;7.9;3.2;;;;;;;;;;;;;-82
2022/05/31 12:27:23;;;;;;;;;;;;;;;24.55;35.09082;101314.2;;;;-83
2022/05/31 12:32:45;;;;;;;;;;;;;;;24.08;35.58691;101318.1;;;;-82
2022/05/31 12:37:24;;;;;;;;;;;;;;;23.59;36.06641;101315.2;;;;-82
2022/05/31 12:42:34;;;;;;;;;;;;;;;23.16;35.98633;101303.3;;;;-82
2022/05/31 12:47:26;;;;;;;;;;;;;;;22.71;37.05566;101314.2;;;;-82
2022/05/31 12:57:22;;;;;;;5.6;2.4;;;;;;;;;;;;;-83
2022/05/31 13:02:45;;;;;;;;;;;;;;;21.59;38.40039;101326;;;;-83
2022/05/31 13:07:25;;;;;;;;;;;;;;;21.25;38.65723;101326.2;;;;-82
2022/05/31 13:22:22;;;;;;;;;;;;;;;20.53;38.80176;101313.3;;;;-82
2022/05/31 13:27:15;;;;;;;3.8;2;;;;;;;;;;;;;-83
2022/05/31 13:27:29;;;;;;;;;;;;;;;20.22;39.00293;101304.3;;;;-82
2022/05/31 13:32:22;;;;;;;;;;;;;;;20.02;39.16992;101316.3;;;;-84
2022/05/31 13:37:23;;;;;;;;;;;;;;;19.85;39.33789;101309;;;;-84
2022/05/31 13:42:31;;;;;;;;;;;;;;;19.64;39.26172;101294.4;;;;-82
2022/05/31 13:47:30;;;;;;;;;;;;;;;19.59;39.30273;101293.1;;;;-84
2022/05/31 13:57:40;;;;;;;;;;;;;;;;;;;;;
2022/05/31 13:58:25;;;;;;;;;;;;;;;19.54;39.37891;101305.8;;;;-84
2022/05/31 14:02:26;;;;;;;;;;;;;;;19.58;39.49512;101313.3;;;;-83
2022/05/31 14:07:29;;;;;;;;;;;;;;;19.55;39.6543;101320.3;;;;-84
2022/05/31 14:12:31;;;;;;;;;;;;;;;19.51;39.69531;101327.7;;;;-84
2022/05/31 14:17:33;;;;;;;;;;;;;;;19.45;39.88477;101331.8;;;;-82
2022/05/31 14:22:24;;;;;;;;;;;;;;;19.4;40.08594;101331.7;;;;-82
2022/05/31 14:27:22;;;;;;;2.1;1.6;;;;;;;;;;;;;-82
2022/05/31 14:27:34;;;;;;;;;;;;;;;19.37;40.37988;101323.1;;;;-82
2022/05/31 14:32:30;;;;;;;;;;;;;;;19.5;40.5293;101324.8;;;;-83
2022/05/31 14:37:35;;;;;;;;;;;;;;;19.66;40.80566;101318.8;;;;-81
2022/05/31 14:42:42;;;;;;;;;;;;;;;19.97;41.30469;101319.2;;;;-83
2022/05/31 14:47:36;;;;;;;;;;;;;;;20.39;40.9541;101313.9;;;;-82
2022/05/31 14:52:26;;;;;;;;;;;;;;;20.8;40.70508;101307;;;;-81
2022/05/31 14:58:36;;;;;;;;;;;;;;;21.17;40.47559;101308;;;;-84
2022/05/31 15:02:27;;;;;;;;;;;;;;;21.51;40.41406;101307.2;;;;-82
2022/05/31 15:07:23;;;;;;;;;;;;;;;21.8;40.00391;101310.5;;;;-84
2022/05/31 15:22:24;;;;;;;;;;;;;;;22.36;39.66309;101308;;;;-84
2022/05/31 15:27:26;;;;;;;;;;;;;;;22.41;39.37988;101317.9;;;;-82
2022/05/31 15:27:36;;;;;;;2.9;1.8;;;;;;;;;;;;;-82
2022/05/31 15:32:23;;;;;;;;;;;;;;;22.34;39.92578;101314.5;;;;-81
2022/05/31 15:37:22;;;;;;;;;;;;;;;22.27;40.02246;101318.4;;;;-84
2022/05/31 15:42:26;;;;;;;;;;;;;;;22.21;39.25879;101316.5;;;;-82
2022/05/31 15:47:23;;;;;;;;;;;;;;;22.14;39.06836;101311.3;;;;-84
2022/05/31 15:52:24;;;;;;;;;;;;;;;22.08;38.77539;101308.5;;;;-84
2022/05/31 15:57:22;;;;;;;;;;;;;;;21.98;38.6748;101304.8;;;;-83
2022/05/31 15:57:35;;;;;;;2.8;2;;;;;;;;;;;;;-83
2022/05/31 16:02:23;;;;;;;;;;;;;;;21.87;38.76855;101305;;;;-84
2022/05/31 16:07:24;;;;;;;;;;;;;;;21.69;38.83398;101299.3;;;;-83
2022/05/31 16:12:23;;;;;;;;;;;;;;;21.54;39.00488;101301.6;;;;-84
2022/05/31 16:17:25;;;;;;;;;;;;;;;21.36;39.16113;101303;;;;-83
2022/05/31 16:22:57;;;;;;;;;;;;;;;21.19;39.4668;101296.1;;;;-86
2022/05/31 16:27:25;;;;;;;;;;;;;;;21.02;39.89941;101298;;;;-81
2022/05/31 16:27:36;;;;;;;4.3;2.8;;;;;;;;;;;;;-81
2022/05/31 16:32:28;;;;;;;;;;;;;;;20.88;40.00195;101297.9;;;;-82
2022/05/31 16:42:25;;;;;;;;;;;;;;;20.63;40.54004;101316.3;;;;-84
2022/05/31 16:47:22;;;;;;;;;;;;;;;20.53;40.46191;101316.1;;;;-83
2022/05/31 16:52:24;;;;;;;;;;;;;;;20.41;40.63477;101313.6;;;;-85
2022/05/31 16:57:25;;;;;;;;;;;;;;;20.28;40.85254;101314.3;;;;-84
2022/05/31 16:57:36;;;;;;;3.6;2.2;;;;;;;;;;;;;-84
2022/05/31 17:02:27;;;;;;;;;;;;;;;20.17;40.8877;101314.8;;;;-85
2022/05/31 17:17:23;;;;;;;;;;;;;;;19.74;41.5;101319.6;;;;-83
2022/05/31 17:22:24;;;;;;;;;;;;;;;19.61;41.71484;101326.7;;;;-83
2022/05/31 17:27:24;;;;;;;;;;;;;;;19.54;41.9043;101328.8;;;;-85
2022/05/31 17:27:38;;;;;;;3.8;2.8;;;;;;;;;;;;;-84
2022/05/31 17:32:28;;;;;;;;;;;;;;;19.41;42.14355;101328.4;;;;-83
2022/05/31 17:37:34;;;;;;;;;;;;;;;19.29;41.94824;101331.4;;;;-85
2022/05/31 17:42:47;;;;;;;;;;;;;;;19.2;41.75781;101332.8;;;;-89
2022/05/31 17:47:56;;;;;;;;;;;;;;;19.06;41.87012;101330.4;;;;-89
2022/05/31 17:57:48;;;;;;;4.4;2.8;;;;;;;;;;;;;-82
2022/05/31 18:02:41;;;;;;;;;;;;;;;18.45;43.31641;101310.4;;;;-82
2022/05/31 18:27:36;;;;;;;;;;;;;;;17.47;45.07227;101331.3;;;;-83
2022/05/31 18:27:47;;;;;;;5;3.5;;;;;;;;;;;;;-83
2022/05/31 18:32:45;;;;;;;;;;;;;;;17.24;45.34473;101331;;;;-84
2022/05/31 18:42:39;;;;;;;;;;;;;;;16.85;45.99707;101323.7;;;;-82
2022/05/31 18:47:36;;;;;;;;;;;;;;;16.72;46.00488;101333.2;;;;-82
2022/05/31 18:52:36;;;;;;;;;;;;;;;16.56;46.43066;101329.9;;;;-85
2022/05/31 18:57:37;;;;;;;;;;;;;;;16.4;46.94531;101340.4;;;;-83
2022/05/31 18:57:50;;;;;;;6.2;3.8;;;;;;;;;;;;;-83
2022/05/31 19:02:41;;;;;;;;;;;;;;;16.25;47.48438;101343.5;;;;-84
2022/05/31 19:07:39;;;;;;;;;;;;;;;16.09;47.86328;101350.7;;;;-85
2022/05/31 19:12:39;;;;;;;;;;;;;;;15.93;48.39941;101344.6;;;;-83
2022/05/31 19:17:42;;;;;;;;;;;;;;;15.76;48.58496;101350.3;;;;-82
2022/05/31 19:22:37;;;;;;;;;;;;;;;15.65;48.40234;101370.4;;;;-83
2022/05/31 19:27:39;;;;;;;;;;;;;;;15.53;48.8418;101375.2;;;;-85
2022/05/31 19:27:51;;;;;;;4.9;3.3;;;;;;;;;;;;;-85
2022/05/31 19:32:37;;;;;;;;;;;;;;;15.39;49.2666;101373.4;;;;-83
2022/05/31 19:37:38;;;;;;;;;;;;;;;15.31;49.54102;101364.9;;;;-82
2022/05/31 19:42:42;;;;;;;;;;;;;;;15.17;49.72852;101378.5;;;;-83
2022/05/31 19:47:37;;;;;;;;;;;;;;;15.02;50.06055;101390.1;;;;-84
2022/05/31 19:52:38;;;;;;;;;;;;;;;14.83;50.91797;101393.4;;;;-80
2022/05/31 19:57:40;;;;;;;;;;;;;;;14.67;50.84277;101400.8;;;;-83
2022/05/31 19:57:50;;;;;;;4.1;2.9;;;;;;;;;;;;;-83
2022/05/31 20:02:38;;;;;;;;;;;;;;;14.51;51.37793;101401.8;;;;-84
2022/05/31 20:07:37;;;;;;;;;;;;;;;14.38;51.41797;101400.5;;;;-82
2022/05/31 20:12:40;;;;;;;;;;;;;;;14.23;51.70508;101402.6;;;;-82
2022/05/31 20:17:37;;;;;;;;;;;;;;;14.07;52.34863;101400.5;;;;-84
2022/05/31 20:22:42;;;;;;;;;;;;;;;13.92;52.66797;101408.1;;;;-84
2022/05/31 20:27:38;;;;;;;;;;;;;;;13.78;53.54004;101413.5;;;;-82
2022/05/31 20:27:52;;;;;;;5.1;3.3;;;;;;;;;;;;;-82
2022/05/31 20:32:49;;;;;;;;;;;;;;;13.66;53.24316;101419.8;;;;-82
2022/05/31 20:37:35;;;;;;;;;;;;;;;13.56;53.09766;101419.4;;;;-83
2022/05/31 20:42:40;;;;;;;;;;;;;;;13.45;53.54395;101427;;;;-82
2022/05/31 20:47:36;;;;;;;;;;;;;;;13.36;53.86914;101423.9;;;;-79
2022/05/31 20:52:37;;;;;;;;;;;;;;;13.28;53.84863;101424.1;;;;-81
2022/05/31 20:57:41;;;;;;;;;;;;;;;13.22;54.09961;101433.3;;;;-82
2022/05/31 20:57:51;;;;;;;5.5;3.4;;;;;;;;;;;;;-82
2022/05/31 21:02:38;;;;;;;;;;;;;;;13.2;54.2207;101435.5;;;;-81
2022/05/31 21:07:51;;;;;;;;;;;;;;;13.16;54.07031;101438.9;;;;-82
2022/05/31 21:12:44;;;;;;;;;;;;;;;13.15;54.16895;101436.8;;;;-83
2022/05/31 21:22:39;;;;;;;;;;;;;;;13.15;54.02246;101437.4;;;;-81
2022/05/31 21:27:36;;;;;;;;;;;;;;;13.12;53.83984;101442.3;;;;-82
2022/05/31 21:27:52;;;;;;;6;3.8;;;;;;;;;;;;;-81
2022/05/31 21:32:38;;;;;;;;;;;;;;;13.11;53.83887;101445.3;;;;-82
2022/05/31 21:37:36;;;;;;;;;;;;;;;13.1;53.91602;101445.3;;;;-82
2022/05/31 21:42:41;;;;;;;;;;;;;;;13.08;53.86914;101447.9;;;;-84
2022/05/31 21:47:36;;;;;;;;;;;;;;;13.06;54.03418;101444.1;;;;-84
2022/05/31 21:52:35;;;;;;;;;;;;;;;13.05;53.85352;101440.7;;;;-84
2022/05/31 21:57:38;;;;;;;;;;;;;;;13.03;53.80664;101437.7;;;;-82
2022/05/31 21:57:53;;;;;;;5.4;3.4;;;;;;;;;;;;;-83
2022/05/31 22:02:42;;;;;;;;;;;;;;;13.01;53.75977;101431.5;;;;-81
2022/05/31 22:07:40;;;;;;;;;;;;;;;12.99;53.72363;101426.8;;;;-82
2022/05/31 22:12:37;;;;;;;;;;;;;;;12.97;53.73145;101425.7;;;;-83
2022/05/31 22:17:39;;;;;;;;;;;;;;;12.95;53.75195;101422.9;;;;-83
2022/05/31 22:22:36;;;;;;;;;;;;;;;12.92;53.77051;101420.6;;;;-82
2022/05/31 22:27:36;;;;;;;;;;;;;;;12.89;53.91406;101420.6;;;;-82
2022/05/31 22:27:54;;;;;;;6.2;3.8;;;;;;;;;;;;;-83
2022/05/31 22:32:35;;;;;;;;;;;;;;;12.87;54.21387;101419.8;;;;-84
2022/05/31 22:37:35;;;;;;;;;;;;;;;12.82;54.54297;101416.5;;;;-82
2022/05/31 22:42:40;;;;;;;;;;;;;;;12.8;54.93262;101422.2;;;;-82
2022/05/31 22:47:36;;;;;;;;;;;;;;;12.76;55.58984;101422.2;;;;-82
2022/05/31 22:52:35;;;;;;;;;;;;;;;12.72;56.03223;101428.4;;;;-83
2022/05/31 22:57:36;;;;;;;;;;;;;;;12.67;56.68652;101428.7;;;;-84
2022/05/31 22:57:57;;;;;;;9.1;5.3;;;;;;;;;;;;;-82
2022/05/31 23:02:36;;;;;;;;;;;;;;;12.63;56.87109;101427.7;;;;-81
2022/05/31 23:07:35;;;;;;;;;;;;;;;12.6;56.7666;101414;;;;-83
2022/05/31 23:12:36;;;;;;;;;;;;;;;12.57;56.96484;101407.9;;;;-81
2022/05/31 23:17:35;;;;;;;;;;;;;;;12.51;57.29199;101409.3;;;;-82
2022/05/31 23:27:36;;;;;;;;;;;;;;;12.47;57.39941;101404.1;;;;-82
2022/05/31 23:27:56;;;;;;;6.2;4;;;;;;;;;;;;;-82
2022/05/31 23:32:35;;;;;;;;;;;;;;;12.45;57.33984;101407.7;;;;-83
2022/05/31 23:37:35;;;;;;;;;;;;;;;12.43;57.24805;101408.8;;;;-82
2022/05/31 23:42:36;;;;;;;;;;;;;;;12.41;57.44727;101403.2;;;;-82
2022/05/31 23:47:35;;;;;;;;;;;;;;;12.38;57.30859;101400.9;;;;-84
2022/05/31 23:52:35;;;;;;;;;;;;;;;12.39;57.17578;101393;;;;-83
2022/05/31 23:57:36;;;;;;;;;;;;;;;12.38;58.0459;101395.1;;;;-82
2022/05/31 23:57:57;;;;;;;8.4;5.1;;;;;;;;;;;;;-82
